Skip Navigation Links Skip Navigation Links

Current Weather

Kuwait International Airport, Kuwait

For information only: do not use for flight planning or navigation.
Latest weather
Observation time Tuesday, October 19, 2021 12:00 PM +03
Local time Tuesday, October 19, 2021 12:14 PM +03
Flight conditions Visual Meteorological Conditions
Winds
Wind direction North-Northeast (20°)
Wind speed 13 mph
Visibility 6.2 mi.
Sky condition
Ceiling unlimited
Sky clear
Temperature 90°F
Dewpoint 46°F
Altimeter 29.94 in.Hg
Derived measurements
Relative humidity 23%
Heat index 90°F
Density altitude 2072 ft.
Remarks
Ceiling and visibility OK.
No significant changes expected in the next two hours.
METAR OKBK 190900Z 02011KT CAVOK 32/08 Q1014 NOSIG

Settings

Location code

InnerDrive.Weather 4.0.6770.0 Release CLR 4.0.30319.42000
Copyright ©2018 Inner Drive Technology. All rights reserved. Portions Copyright ©1986-2018 David Braverman.

Find weather

Site navigation


Skip Navigation Links

Place info

Page info

PayPal - The safer, easier way to pay online!

Return home.

Copyright ©2021 Inner Drive Technology. Purveyors of fine, hand-crafted computer software. Page printed 2021-10-19T09:14:12 UTC.